sensor_id;sensor_type;location;lat;lon;timestamp;P1;durP1;ratioP1;P2;durP2;ratioP2
20896;SDS011;10608;42.600;23.398;2023-07-31T00:01:17;128.77;;;123.00;;
20896;SDS011;10608;42.600;23.398;2023-07-31T00:03:43;137.13;;;131.10;;
20896;SDS011;10608;42.600;23.398;2023-07-31T00:06:08;138.43;;;132.43;;
20896;SDS011;10608;42.600;23.398;2023-07-31T00:08:33;119.00;;;113.80;;
20896;SDS011;10608;42.600;23.398;2023-07-31T00:10:59;129.47;;;123.83;;
20896;SDS011;10608;42.600;23.398;2023-07-31T00:13:24;149.67;;;143.03;;
20896;SDS011;10608;42.600;23.398;2023-07-31T00:15:50;134.70;;;128.80;;
20896;SDS011;10608;42.600;23.398;2023-07-31T00:18:15;138.13;;;132.07;;
20896;SDS011;10608;42.600;23.398;2023-07-31T00:20:41;126.83;;;121.23;;
20896;SDS011;10608;42.600;23.398;2023-07-31T00:23:06;170.43;;;163.13;;
20896;SDS011;10608;42.600;23.398;2023-07-31T00:25:32;205.43;;;196.63;;
20896;SDS011;10608;42.600;23.398;2023-07-31T00:27:57;173.87;;;166.50;;
20896;SDS011;10608;42.600;23.398;2023-07-31T00:30:22;128.87;;;123.13;;
20896;SDS011;10608;42.600;23.398;2023-07-31T00:32:50;146.73;;;140.20;;
20896;SDS011;10608;42.600;23.398;2023-07-31T00:35:15;145.13;;;139.03;;
20896;SDS011;10608;42.600;23.398;2023-07-31T00:37:41;155.83;;;149.17;;
20896;SDS011;10608;42.600;23.398;2023-07-31T00:40:06;146.33;;;140.03;;
20896;SDS011;10608;42.600;23.398;2023-07-31T00:42:32;132.07;;;126.27;;
20896;SDS011;10608;42.600;23.398;2023-07-31T00:44:58;134.70;;;128.67;;
20896;SDS011;10608;42.600;23.398;2023-07-31T00:47:23;150.70;;;143.87;;
20896;SDS011;10608;42.600;23.398;2023-07-31T00:49:48;159.00;;;151.90;;
20896;SDS011;10608;42.600;23.398;2023-07-31T00:52:14;187.43;;;179.17;;
20896;SDS011;10608;42.600;23.398;2023-07-31T00:54:40;151.47;;;144.50;;
20896;SDS011;10608;42.600;23.398;2023-07-31T00:57:05;165.50;;;158.10;;
20896;SDS011;10608;42.600;23.398;2023-07-31T00:59:33;158.37;;;151.37;;
20896;SDS011;10608;42.600;23.398;2023-07-31T01:01:58;129.37;;;123.73;;
20896;SDS011;10608;42.600;23.398;2023-07-31T01:04:24;148.90;;;142.40;;
20896;SDS011;10608;42.600;23.398;2023-07-31T01:09:59;137.90;;;131.70;;
20896;SDS011;10608;42.600;23.398;2023-07-31T01:12:29;141.83;;;135.63;;
20896;SDS011;10608;42.600;23.398;2023-07-31T01:15:06;174.90;;;167.13;;
20896;SDS011;10608;42.600;23.398;2023-07-31T01:17:36;162.53;;;155.27;;
20896;SDS011;10608;42.600;23.398;2023-07-31T01:20:03;177.30;;;169.40;;
20896;SDS011;10608;42.600;23.398;2023-07-31T01:22:37;189.60;;;181.30;;
20896;SDS011;10608;42.600;23.398;2023-07-31T01:25:22;192.60;;;184.13;;
20896;SDS011;10608;42.600;23.398;2023-07-31T01:28:02;175.37;;;167.73;;
20896;SDS011;10608;42.600;23.398;2023-07-31T01:30:33;208.27;;;199.33;;
20896;SDS011;10608;42.600;23.398;2023-07-31T01:33:02;235.80;;;225.63;;
20896;SDS011;10608;42.600;23.398;2023-07-31T01:35:35;245.57;;;235.27;;
20896;SDS011;10608;42.600;23.398;2023-07-31T01:38:02;245.87;;;235.57;;
20896;SDS011;10608;42.600;23.398;2023-07-31T01:40:28;239.83;;;229.87;;
20896;SDS011;10608;42.600;23.398;2023-07-31T01:42:53;258.90;;;247.80;;
20896;SDS011;10608;42.600;23.398;2023-07-31T01:45:19;271.93;;;260.23;;
20896;SDS011;10608;42.600;23.398;2023-07-31T01:47:45;227.63;;;218.03;;
20896;SDS011;10608;42.600;23.398;2023-07-31T01:50:10;188.23;;;180.10;;
20896;SDS011;10608;42.600;23.398;2023-07-31T01:52:36;184.77;;;176.60;;
20896;SDS011;10608;42.600;23.398;2023-07-31T01:55:01;236.10;;;225.87;;
20896;SDS011;10608;42.600;23.398;2023-07-31T01:57:26;213.73;;;204.47;;
20896;SDS011;10608;42.600;23.398;2023-07-31T01:59:52;184.63;;;176.60;;
20896;SDS011;10608;42.600;23.398;2023-07-31T02:02:18;216.70;;;207.30;;
20896;SDS011;10608;42.600;23.398;2023-07-31T02:04:44;332.50;;;317.20;;
20896;SDS011;10608;42.600;23.398;2023-07-31T02:07:10;299.37;;;285.93;;
20896;SDS011;10608;42.600;23.398;2023-07-31T02:09:35;291.23;;;278.53;;
20896;SDS011;10608;42.600;23.398;2023-07-31T02:12:00;273.83;;;261.70;;
20896;SDS011;10608;42.600;23.398;2023-07-31T02:14:26;283.63;;;271.03;;
20896;SDS011;10608;42.600;23.398;2023-07-31T02:16:51;263.13;;;251.70;;
20896;SDS011;10608;42.600;23.398;2023-07-31T02:19:17;197.30;;;188.57;;
20896;SDS011;10608;42.600;23.398;2023-07-31T02:21:42;171.37;;;163.67;;
20896;SDS011;10608;42.600;23.398;2023-07-31T02:24:07;189.50;;;180.93;;
20896;SDS011;10608;42.600;23.398;2023-07-31T02:26:33;194.30;;;185.30;;
20896;SDS011;10608;42.600;23.398;2023-07-31T02:28:58;216.87;;;206.87;;
20896;SDS011;10608;42.600;23.398;2023-07-31T02:31:23;212.37;;;202.50;;
20896;SDS011;10608;42.600;23.398;2023-07-31T02:33:49;226.13;;;215.20;;
20896;SDS011;10608;42.600;23.398;2023-07-31T02:36:14;206.07;;;195.87;;
20896;SDS011;10608;42.600;23.398;2023-07-31T02:38:40;225.93;;;215.10;;
20896;SDS011;10608;42.600;23.398;2023-07-31T02:41:05;224.17;;;213.63;;
20896;SDS011;10608;42.600;23.398;2023-07-31T02:43:31;227.03;;;216.33;;
20896;SDS011;10608;42.600;23.398;2023-07-31T02:45:56;229.30;;;218.60;;
20896;SDS011;10608;42.600;23.398;2023-07-31T02:48:22;190.37;;;181.57;;
20896;SDS011;10608;42.600;23.398;2023-07-31T02:50:47;165.23;;;157.60;;
20896;SDS011;10608;42.600;23.398;2023-07-31T02:53:13;152.80;;;145.67;;
20896;SDS011;10608;42.600;23.398;2023-07-31T02:55:39;156.83;;;149.47;;
20896;SDS011;10608;42.600;23.398;2023-07-31T02:58:04;173.27;;;164.87;;
20896;SDS011;10608;42.600;23.398;2023-07-31T03:00:30;169.17;;;161.10;;
20896;SDS011;10608;42.600;23.398;2023-07-31T03:02:55;177.80;;;169.70;;
20896;SDS011;10608;42.600;23.398;2023-07-31T03:05:21;180.67;;;172.07;;
20896;SDS011;10608;42.600;23.398;2023-07-31T03:07:46;199.87;;;190.03;;
20896;SDS011;10608;42.600;23.398;2023-07-31T03:10:11;184.97;;;175.57;;
20896;SDS011;10608;42.600;23.398;2023-07-31T03:12:37;206.23;;;196.23;;
20896;SDS011;10608;42.600;23.398;2023-07-31T03:15:02;233.17;;;222.40;;
20896;SDS011;10608;42.600;23.398;2023-07-31T03:17:28;280.73;;;267.57;;
20896;SDS011;10608;42.600;23.398;2023-07-31T03:19:54;207.17;;;197.00;;
20896;SDS011;10608;42.600;23.398;2023-07-31T03:22:19;170.63;;;161.90;;
20896;SDS011;10608;42.600;23.398;2023-07-31T03:24:44;193.10;;;183.47;;
20896;SDS011;10608;42.600;23.398;2023-07-31T03:27:10;211.60;;;201.23;;
20896;SDS011;10608;42.600;23.398;2023-07-31T03:29:35;227.60;;;216.30;;
20896;SDS011;10608;42.600;23.398;2023-07-31T03:32:00;234.77;;;223.40;;
20896;SDS011;10608;42.600;23.398;2023-07-31T03:34:26;223.70;;;212.67;;
20896;SDS011;10608;42.600;23.398;2023-07-31T03:36:51;218.50;;;206.87;;
20896;SDS011;10608;42.600;23.398;2023-07-31T03:39:17;238.60;;;226.60;;
20896;SDS011;10608;42.600;23.398;2023-07-31T03:41:43;247.97;;;235.47;;
20896;SDS011;10608;42.600;23.398;2023-07-31T03:44:08;214.10;;;203.30;;
20896;SDS011;10608;42.600;23.398;2023-07-31T03:46:34;205.90;;;195.67;;
20896;SDS011;10608;42.600;23.398;2023-07-31T03:49:01;194.83;;;185.17;;
20896;SDS011;10608;42.600;23.398;2023-07-31T03:51:26;217.00;;;206.77;;
20896;SDS011;10608;42.600;23.398;2023-07-31T03:53:51;235.47;;;224.03;;
20896;SDS011;10608;42.600;23.398;2023-07-31T03:56:17;173.83;;;164.80;;
20896;SDS011;10608;42.600;23.398;2023-07-31T03:58:42;221.07;;;210.37;;
20896;SDS011;10608;42.600;23.398;2023-07-31T04:01:08;173.77;;;165.00;;
20896;SDS011;10608;42.600;23.398;2023-07-31T04:03:33;183.47;;;174.07;;
20896;SDS011;10608;42.600;23.398;2023-07-31T04:05:59;181.83;;;172.90;;
20896;SDS011;10608;42.600;23.398;2023-07-31T04:08:24;199.70;;;190.00;;
20896;SDS011;10608;42.600;23.398;2023-07-31T04:10:50;193.87;;;184.30;;
20896;SDS011;10608;42.600;23.398;2023-07-31T04:13:15;179.50;;;170.43;;
20896;SDS011;10608;42.600;23.398;2023-07-31T04:15:41;241.50;;;229.63;;
20896;SDS011;10608;42.600;23.398;2023-07-31T04:18:06;267.97;;;255.13;;
20896;SDS011;10608;42.600;23.398;2023-07-31T04:20:32;270.23;;;257.07;;
20896;SDS011;10608;42.600;23.398;2023-07-31T04:22:57;243.47;;;231.83;;
20896;SDS011;10608;42.600;23.398;2023-07-31T04:25:23;239.17;;;227.60;;
20896;SDS011;10608;42.600;23.398;2023-07-31T04:27:48;231.37;;;220.27;;
20896;SDS011;10608;42.600;23.398;2023-07-31T04:30:13;211.93;;;201.07;;
20896;SDS011;10608;42.600;23.398;2023-07-31T04:32:39;196.70;;;186.80;;
20896;SDS011;10608;42.600;23.398;2023-07-31T04:35:04;190.20;;;180.53;;
20896;SDS011;10608;42.600;23.398;2023-07-31T04:37:30;159.97;;;151.67;;
20896;SDS011;10608;42.600;23.398;2023-07-31T04:39:56;137.13;;;129.87;;
20896;SDS011;10608;42.600;23.398;2023-07-31T04:42:21;120.83;;;114.33;;
20896;SDS011;10608;42.600;23.398;2023-07-31T04:44:47;143.47;;;136.27;;
20896;SDS011;10608;42.600;23.398;2023-07-31T04:47:12;142.33;;;134.93;;
20896;SDS011;10608;42.600;23.398;2023-07-31T04:49:37;128.80;;;122.10;;
20896;SDS011;10608;42.600;23.398;2023-07-31T04:52:03;102.13;;;96.83;;
20896;SDS011;10608;42.600;23.398;2023-07-31T04:54:29;103.57;;;98.27;;
20896;SDS011;10608;42.600;23.398;2023-07-31T04:56:54;108.03;;;102.37;;
20896;SDS011;10608;42.600;23.398;2023-07-31T04:59:20;72.27;;;68.07;;
20896;SDS011;10608;42.600;23.398;2023-07-31T05:01:45;60.67;;;57.43;;
20896;SDS011;10608;42.600;23.398;2023-07-31T05:04:14;79.83;;;75.63;;
20896;SDS011;10608;42.600;23.398;2023-07-31T05:06:40;111.47;;;106.00;;
20896;SDS011;10608;42.600;23.398;2023-07-31T05:09:05;122.07;;;116.00;;
20896;SDS011;10608;42.600;23.398;2023-07-31T05:11:31;81.50;;;77.30;;
20896;SDS011;10608;42.600;23.398;2023-07-31T05:13:56;74.67;;;70.67;;
20896;SDS011;10608;42.600;23.398;2023-07-31T05:16:21;54.40;;;51.37;;
20896;SDS011;10608;42.600;23.398;2023-07-31T05:18:47;57.73;;;54.63;;
20896;SDS011;10608;42.600;23.398;2023-07-31T05:21:12;72.57;;;68.63;;
20896;SDS011;10608;42.600;23.398;2023-07-31T05:23:38;63.70;;;59.93;;
20896;SDS011;10608;42.600;23.398;2023-07-31T05:26:04;48.70;;;45.80;;
20896;SDS011;10608;42.600;23.398;2023-07-31T05:28:30;47.40;;;44.57;;
20896;SDS011;10608;42.600;23.398;2023-07-31T05:31:14;49.93;;;47.13;;
20896;SDS011;10608;42.600;23.398;2023-07-31T05:33:39;56.47;;;53.47;;
20896;SDS011;10608;42.600;23.398;2023-07-31T05:36:04;78.17;;;74.23;;
20896;SDS011;10608;42.600;23.398;2023-07-31T05:38:30;114.13;;;108.37;;
20896;SDS011;10608;42.600;23.398;2023-07-31T05:40:55;57.33;;;54.17;;
20896;SDS011;10608;42.600;23.398;2023-07-31T05:43:21;68.93;;;65.30;;
20896;SDS011;10608;42.600;23.398;2023-07-31T05:45:46;42.37;;;40.07;;
20896;SDS011;10608;42.600;23.398;2023-07-31T05:48:12;37.03;;;35.03;;
20896;SDS011;10608;42.600;23.398;2023-07-31T05:50:37;36.77;;;34.77;;
20896;SDS011;10608;42.600;23.398;2023-07-31T05:53:06;36.10;;;34.07;;
20896;SDS011;10608;42.600;23.398;2023-07-31T05:55:33;40.60;;;38.30;;
20896;SDS011;10608;42.600;23.398;2023-07-31T05:57:58;40.13;;;38.03;;
20896;SDS011;10608;42.600;23.398;2023-07-31T06:00:24;46.63;;;44.30;;
20896;SDS011;10608;42.600;23.398;2023-07-31T06:02:49;61.43;;;58.33;;
20896;SDS011;10608;42.600;23.398;2023-07-31T06:05:14;30.43;;;28.83;;
20896;SDS011;10608;42.600;23.398;2023-07-31T06:07:40;32.47;;;30.60;;
20896;SDS011;10608;42.600;23.398;2023-07-31T06:10:05;33.47;;;31.67;;
20896;SDS011;10608;42.600;23.398;2023-07-31T06:12:32;28.33;;;26.83;;
20896;SDS011;10608;42.600;23.398;2023-07-31T06:14:58;36.70;;;34.83;;
20896;SDS011;10608;42.600;23.398;2023-07-31T06:17:23;26.33;;;24.87;;
20896;SDS011;10608;42.600;23.398;2023-07-31T06:19:49;36.73;;;34.83;;
20896;SDS011;10608;42.600;23.398;2023-07-31T06:22:16;32.00;;;30.20;;
20896;SDS011;10608;42.600;23.398;2023-07-31T06:24:41;35.50;;;33.73;;
20896;SDS011;10608;42.600;23.398;2023-07-31T06:27:06;41.37;;;39.13;;
20896;SDS011;10608;42.600;23.398;2023-07-31T06:29:32;23.27;;;22.07;;
20896;SDS011;10608;42.600;23.398;2023-07-31T06:31:58;82.93;;;79.17;;
20896;SDS011;10608;42.600;23.398;2023-07-31T06:34:23;30.87;;;29.27;;
20896;SDS011;10608;42.600;23.398;2023-07-31T06:36:49;19.07;;;18.07;;
20896;SDS011;10608;42.600;23.398;2023-07-31T06:39:14;43.13;;;41.13;;
20896;SDS011;10608;42.600;23.398;2023-07-31T06:41:40;34.00;;;32.40;;
20896;SDS011;10608;42.600;23.398;2023-07-31T06:44:05;28.50;;;27.00;;
20896;SDS011;10608;42.600;23.398;2023-07-31T06:46:31;45.87;;;43.77;;
20896;SDS011;10608;42.600;23.398;2023-07-31T06:48:56;33.97;;;32.37;;
20896;SDS011;10608;42.600;23.398;2023-07-31T06:51:21;38.13;;;36.43;;
20896;SDS011;10608;42.600;23.398;2023-07-31T06:53:47;30.47;;;29.00;;
20896;SDS011;10608;42.600;23.398;2023-07-31T06:56:12;26.23;;;25.03;;
20896;SDS011;10608;42.600;23.398;2023-07-31T06:58:38;36.33;;;34.70;;
20896;SDS011;10608;42.600;23.398;2023-07-31T07:01:03;33.23;;;31.60;;
20896;SDS011;10608;42.600;23.398;2023-07-31T07:03:29;36.00;;;34.37;;
20896;SDS011;10608;42.600;23.398;2023-07-31T07:05:54;24.00;;;22.90;;
20896;SDS011;10608;42.600;23.398;2023-07-31T07:08:20;24.13;;;23.03;;
20896;SDS011;10608;42.600;23.398;2023-07-31T07:10:46;24.10;;;23.00;;
20896;SDS011;10608;42.600;23.398;2023-07-31T07:13:12;14.50;;;13.70;;
20896;SDS011;10608;42.600;23.398;2023-07-31T07:15:38;15.73;;;14.87;;
20896;SDS011;10608;42.600;23.398;2023-07-31T07:18:03;16.47;;;15.67;;
20896;SDS011;10608;42.600;23.398;2023-07-31T07:20:29;16.93;;;16.10;;
20896;SDS011;10608;42.600;23.398;2023-07-31T07:22:54;16.80;;;15.90;;
20896;SDS011;10608;42.600;23.398;2023-07-31T07:25:19;13.00;;;12.40;;
20896;SDS011;10608;42.600;23.398;2023-07-31T07:27:45;12.70;;;12.10;;
20896;SDS011;10608;42.600;23.398;2023-07-31T07:30:10;11.67;;;11.07;;
20896;SDS011;10608;42.600;23.398;2023-07-31T07:32:36;11.47;;;10.67;;
20896;SDS011;10608;42.600;23.398;2023-07-31T07:35:01;12.93;;;12.23;;
20896;SDS011;10608;42.600;23.398;2023-07-31T07:37:27;11.67;;;11.03;;
20896;SDS011;10608;42.600;23.398;2023-07-31T07:39:53;14.10;;;13.40;;
20896;SDS011;10608;42.600;23.398;2023-07-31T07:42:18;12.13;;;11.53;;
20896;SDS011;10608;42.600;23.398;2023-07-31T07:44:44;11.83;;;11.23;;
20896;SDS011;10608;42.600;23.398;2023-07-31T07:47:09;11.67;;;11.07;;
20896;SDS011;10608;42.600;23.398;2023-07-31T07:49:34;17.33;;;16.43;;
20896;SDS011;10608;42.600;23.398;2023-07-31T07:52:00;13.23;;;12.43;;
20896;SDS011;10608;42.600;23.398;2023-07-31T07:54:26;13.73;;;13.03;;
20896;SDS011;10608;42.600;23.398;2023-07-31T07:56:51;12.20;;;11.60;;
20896;SDS011;10608;42.600;23.398;2023-07-31T07:59:17;14.57;;;13.87;;
20896;SDS011;10608;42.600;23.398;2023-07-31T08:01:42;12.30;;;11.70;;
20896;SDS011;10608;42.600;23.398;2023-07-31T08:04:08;15.13;;;14.43;;
20896;SDS011;10608;42.600;23.398;2023-07-31T08:06:33;13.00;;;12.40;;
20896;SDS011;10608;42.600;23.398;2023-07-31T08:08:59;12.30;;;11.70;;
20896;SDS011;10608;42.600;23.398;2023-07-31T08:11:24;13.70;;;13.07;;
20896;SDS011;10608;42.600;23.398;2023-07-31T08:13:50;15.83;;;15.13;;
20896;SDS011;10608;42.600;23.398;2023-07-31T08:16:15;14.83;;;14.13;;
20896;SDS011;10608;42.600;23.398;2023-07-31T08:18:41;11.43;;;10.93;;
20896;SDS011;10608;42.600;23.398;2023-07-31T08:21:09;13.37;;;12.67;;
20896;SDS011;10608;42.600;23.398;2023-07-31T08:23:35;17.20;;;16.40;;
20896;SDS011;10608;42.600;23.398;2023-07-31T08:26:00;12.17;;;11.57;;
20896;SDS011;10608;42.600;23.398;2023-07-31T08:28:26;12.50;;;11.90;;
20896;SDS011;10608;42.600;23.398;2023-07-31T08:30:51;11.10;;;10.60;;
20896;SDS011;10608;42.600;23.398;2023-07-31T08:33:16;11.87;;;11.17;;
20896;SDS011;10608;42.600;23.398;2023-07-31T08:35:42;11.87;;;11.27;;
20896;SDS011;10608;42.600;23.398;2023-07-31T08:38:07;11.93;;;11.33;;
20896;SDS011;10608;42.600;23.398;2023-07-31T08:40:35;15.20;;;14.50;;
20896;SDS011;10608;42.600;23.398;2023-07-31T08:43:01;14.83;;;14.23;;
20896;SDS011;10608;42.600;23.398;2023-07-31T08:45:27;13.97;;;13.17;;
20896;SDS011;10608;42.600;23.398;2023-07-31T08:47:53;14.73;;;13.93;;
20896;SDS011;10608;42.600;23.398;2023-07-31T08:50:19;11.50;;;11.00;;
20896;SDS011;10608;42.600;23.398;2023-07-31T08:52:45;13.27;;;12.63;;
20896;SDS011;10608;42.600;23.398;2023-07-31T08:55:12;10.57;;;10.07;;
20896;SDS011;10608;42.600;23.398;2023-07-31T08:57:38;10.97;;;10.47;;
20896;SDS011;10608;42.600;23.398;2023-07-31T09:00:04;10.50;;;10.00;;
20896;SDS011;10608;42.600;23.398;2023-07-31T09:02:54;12.63;;;12.03;;
20896;SDS011;10608;42.600;23.398;2023-07-31T09:05:21;14.47;;;13.67;;
20896;SDS011;10608;42.600;23.398;2023-07-31T09:07:47;13.17;;;12.43;;
20896;SDS011;10608;42.600;23.398;2023-07-31T09:10:14;13.32;;;12.63;;
20896;SDS011;10608;42.600;23.398;2023-07-31T09:12:40;14.68;;;13.98;;
20896;SDS011;10608;42.600;23.398;2023-07-31T09:15:05;13.13;;;12.53;;
20896;SDS011;10608;42.600;23.398;2023-07-31T09:17:32;14.23;;;13.55;;
20896;SDS011;10608;42.600;23.398;2023-07-31T09:22:44;10.82;;;10.25;;
20896;SDS011;10608;42.600;23.398;2023-07-31T09:28:03;9.07;;;8.63;;
20896;SDS011;10608;42.600;23.398;2023-07-31T09:30:30;10.50;;;10.00;;
20896;SDS011;10608;42.600;23.398;2023-07-31T09:33:05;9.80;;;9.30;;
20896;SDS011;10608;42.600;23.398;2023-07-31T09:35:32;9.13;;;8.57;;
20896;SDS011;10608;42.600;23.398;2023-07-31T09:38:01;10.00;;;9.57;;
20896;SDS011;10608;42.600;23.398;2023-07-31T09:40:30;11.93;;;11.32;;
20896;SDS011;10608;42.600;23.398;2023-07-31T09:42:58;10.80;;;10.30;;
20896;SDS011;10608;42.600;23.398;2023-07-31T09:45:28;10.25;;;9.75;;
20896;SDS011;10608;42.600;23.398;2023-07-31T09:47:54;8.80;;;8.32;;
20896;SDS011;10608;42.600;23.398;2023-07-31T09:50:21;7.75;;;7.40;;
20896;SDS011;10608;42.600;23.398;2023-07-31T09:52:48;7.90;;;7.50;;
20896;SDS011;10608;42.600;23.398;2023-07-31T09:55:14;8.85;;;8.35;;
20896;SDS011;10608;42.600;23.398;2023-07-31T09:57:40;8.27;;;7.88;;
20896;SDS011;10608;42.600;23.398;2023-07-31T10:00:09;8.55;;;8.05;;
20896;SDS011;10608;42.600;23.398;2023-07-31T10:02:36;7.88;;;7.47;;
20896;SDS011;10608;42.600;23.398;2023-07-31T10:05:03;8.88;;;8.48;;
20896;SDS011;10608;42.600;23.398;2023-07-31T10:07:30;9.93;;;9.43;;
20896;SDS011;10608;42.600;23.398;2023-07-31T10:09:59;11.33;;;10.73;;
20896;SDS011;10608;42.600;23.398;2023-07-31T10:12:25;11.50;;;10.90;;
20896;SDS011;10608;42.600;23.398;2023-07-31T10:14:54;12.83;;;12.20;;
20896;SDS011;10608;42.600;23.398;2023-07-31T10:17:21;11.53;;;10.93;;
20896;SDS011;10608;42.600;23.398;2023-07-31T10:19:48;11.40;;;10.80;;
20896;SDS011;10608;42.600;23.398;2023-07-31T10:22:15;12.80;;;12.10;;
20896;SDS011;10608;42.600;23.398;2023-07-31T10:24:43;12.37;;;11.77;;
20896;SDS011;10608;42.600;23.398;2023-07-31T10:27:11;14.73;;;14.03;;
20896;SDS011;10608;42.600;23.398;2023-07-31T10:29:37;14.80;;;14.10;;
20896;SDS011;10608;42.600;23.398;2023-07-31T10:32:04;15.60;;;14.90;;
20896;SDS011;10608;42.600;23.398;2023-07-31T10:34:33;16.23;;;15.43;;
20896;SDS011;10608;42.600;23.398;2023-07-31T10:42:52;16.37;;;15.67;;
20896;SDS011;10608;42.600;23.398;2023-07-31T10:45:25;18.77;;;17.97;;
20896;SDS011;10608;42.600;23.398;2023-07-31T10:47:57;16.27;;;15.57;;
20896;SDS011;10608;42.600;23.398;2023-07-31T10:50:27;16.40;;;15.70;;
20896;SDS011;10608;42.600;23.398;2023-07-31T10:52:54;13.30;;;12.60;;
20896;SDS011;10608;42.600;23.398;2023-07-31T10:55:25;11.67;;;11.17;;
20896;SDS011;10608;42.600;23.398;2023-07-31T10:57:54;12.27;;;11.67;;
20896;SDS011;10608;42.600;23.398;2023-07-31T11:00:27;13.63;;;12.93;;
20896;SDS011;10608;42.600;23.398;2023-07-31T11:08:23;20.00;;;19.00;;
20896;SDS011;10608;42.600;23.398;2023-07-31T11:10:51;40.50;;;38.80;;
20896;SDS011;10608;42.600;23.398;2023-07-31T11:13:31;46.20;;;44.20;;
20896;SDS011;10608;42.600;23.398;2023-07-31T11:15:59;26.40;;;25.23;;
20896;SDS011;10608;42.600;23.398;2023-07-31T11:18:25;16.53;;;15.83;;
20896;SDS011;10608;42.600;23.398;2023-07-31T11:20:52;16.37;;;15.67;;
20896;SDS011;10608;42.600;23.398;2023-07-31T11:23:18;17.30;;;16.50;;
20896;SDS011;10608;42.600;23.398;2023-07-31T11:25:44;13.47;;;12.87;;
20896;SDS011;10608;42.600;23.398;2023-07-31T11:28:11;12.27;;;11.67;;
20896;SDS011;10608;42.600;23.398;2023-07-31T11:30:37;14.03;;;13.43;;
20896;SDS011;10608;42.600;23.398;2023-07-31T11:33:05;14.53;;;13.67;;
20896;SDS011;10608;42.600;23.398;2023-07-31T11:35:41;14.03;;;13.43;;
20896;SDS011;10608;42.600;23.398;2023-07-31T11:38:10;15.63;;;14.93;;
20896;SDS011;10608;42.600;23.398;2023-07-31T11:40:57;14.67;;;14.00;;
20896;SDS011;10608;42.600;23.398;2023-07-31T11:43:23;12.77;;;12.17;;
20896;SDS011;10608;42.600;23.398;2023-07-31T11:45:50;11.77;;;11.27;;
20896;SDS011;10608;42.600;23.398;2023-07-31T11:48:24;13.70;;;13.10;;
20896;SDS011;10608;42.600;23.398;2023-07-31T11:50:52;15.63;;;15.00;;
20896;SDS011;10608;42.600;23.398;2023-07-31T11:56:09;9.63;;;9.03;;
20896;SDS011;10608;42.600;23.398;2023-07-31T11:58:37;14.00;;;13.40;;
20896;SDS011;10608;42.600;23.398;2023-07-31T12:01:04;16.30;;;15.53;;
20896;SDS011;10608;42.600;23.398;2023-07-31T12:03:30;17.00;;;16.20;;
20896;SDS011;10608;42.600;23.398;2023-07-31T12:05:57;20.87;;;19.90;;
20896;SDS011;10608;42.600;23.398;2023-07-31T12:08:24;17.40;;;16.60;;
20896;SDS011;10608;42.600;23.398;2023-07-31T12:10:50;18.17;;;17.37;;
20896;SDS011;10608;42.600;23.398;2023-07-31T12:13:23;27.20;;;26.00;;
20896;SDS011;10608;42.600;23.398;2023-07-31T12:15:58;29.40;;;28.07;;
20896;SDS011;10608;42.600;23.398;2023-07-31T12:18:26;36.10;;;34.50;;
20896;SDS011;10608;42.600;23.398;2023-07-31T12:20:59;34.10;;;32.60;;
20896;SDS011;10608;42.600;23.398;2023-07-31T12:23:30;35.43;;;33.93;;
20896;SDS011;10608;42.600;23.398;2023-07-31T12:26:00;23.37;;;22.27;;
20896;SDS011;10608;42.600;23.398;2023-07-31T12:28:41;26.13;;;24.93;;
20896;SDS011;10608;42.600;23.398;2023-07-31T12:31:21;34.43;;;32.93;;
20896;SDS011;10608;42.600;23.398;2023-07-31T12:33:48;28.23;;;27.00;;
20896;SDS011;10608;42.600;23.398;2023-07-31T12:36:15;22.10;;;21.10;;
20896;SDS011;10608;42.600;23.398;2023-07-31T12:38:44;24.17;;;22.97;;
20896;SDS011;10608;42.600;23.398;2023-07-31T12:41:10;20.43;;;19.43;;
20896;SDS011;10608;42.600;23.398;2023-07-31T12:43:37;19.47;;;18.50;;
20896;SDS011;10608;42.600;23.398;2023-07-31T12:46:04;24.33;;;23.13;;
20896;SDS011;10608;42.600;23.398;2023-07-31T12:48:31;15.27;;;14.37;;
20896;SDS011;10608;42.600;23.398;2023-07-31T12:50:56;17.03;;;16.13;;
20896;SDS011;10608;42.600;23.398;2023-07-31T12:53:22;15.47;;;14.57;;
20896;SDS011;10608;42.600;23.398;2023-07-31T12:55:47;14.73;;;13.83;;
20896;SDS011;10608;42.600;23.398;2023-07-31T12:58:13;14.53;;;13.63;;
20896;SDS011;10608;42.600;23.398;2023-07-31T13:00:38;17.53;;;16.53;;
20896;SDS011;10608;42.600;23.398;2023-07-31T13:03:04;15.17;;;14.37;;
20896;SDS011;10608;42.600;23.398;2023-07-31T13:05:29;15.93;;;14.90;;
20896;SDS011;10608;42.600;23.398;2023-07-31T13:07:55;16.03;;;15.13;;
20896;SDS011;10608;42.600;23.398;2023-07-31T13:10:21;27.53;;;26.23;;
20896;SDS011;10608;42.600;23.398;2023-07-31T13:12:48;21.47;;;20.13;;
20896;SDS011;10608;42.600;23.398;2023-07-31T13:15:13;21.73;;;20.63;;
20896;SDS011;10608;42.600;23.398;2023-07-31T13:17:38;16.83;;;15.93;;
20896;SDS011;10608;42.600;23.398;2023-07-31T13:20:04;14.37;;;13.57;;
20896;SDS011;10608;42.600;23.398;2023-07-31T13:22:30;16.00;;;15.10;;
20896;SDS011;10608;42.600;23.398;2023-07-31T13:24:55;15.80;;;15.00;;
20896;SDS011;10608;42.600;23.398;2023-07-31T13:27:21;24.43;;;23.23;;
20896;SDS011;10608;42.600;23.398;2023-07-31T13:29:50;25.20;;;24.00;;
20896;SDS011;10608;42.600;23.398;2023-07-31T13:32:16;23.33;;;22.13;;
20896;SDS011;10608;42.600;23.398;2023-07-31T13:34:43;21.23;;;20.10;;
20896;SDS011;10608;42.600;23.398;2023-07-31T13:37:09;19.33;;;18.33;;
20896;SDS011;10608;42.600;23.398;2023-07-31T13:39:34;18.13;;;17.17;;
20896;SDS011;10608;42.600;23.398;2023-07-31T13:42:00;12.77;;;12.07;;
20896;SDS011;10608;42.600;23.398;2023-07-31T13:44:27;14.50;;;13.70;;
20896;SDS011;10608;42.600;23.398;2023-07-31T13:46:52;14.73;;;13.83;;
20896;SDS011;10608;42.600;23.398;2023-07-31T13:49:17;14.10;;;13.30;;
20896;SDS011;10608;42.600;23.398;2023-07-31T13:51:43;14.20;;;13.37;;
20896;SDS011;10608;42.600;23.398;2023-07-31T13:54:08;13.10;;;12.40;;
20896;SDS011;10608;42.600;23.398;2023-07-31T13:56:36;17.73;;;16.90;;
20896;SDS011;10608;42.600;23.398;2023-07-31T13:59:02;18.23;;;17.33;;
20896;SDS011;10608;42.600;23.398;2023-07-31T14:01:27;14.10;;;13.17;;
20896;SDS011;10608;42.600;23.398;2023-07-31T14:03:53;14.43;;;13.63;;
20896;SDS011;10608;42.600;23.398;2023-07-31T14:06:18;22.20;;;21.20;;
20896;SDS011;10608;42.600;23.398;2023-07-31T14:08:44;19.70;;;18.67;;
20896;SDS011;10608;42.600;23.398;2023-07-31T14:11:09;16.47;;;15.67;;
20896;SDS011;10608;42.600;23.398;2023-07-31T14:13:35;16.97;;;16.07;;
20896;SDS011;10608;42.600;23.398;2023-07-31T14:16:00;13.87;;;13.17;;
20896;SDS011;10608;42.600;23.398;2023-07-31T14:18:26;12.40;;;11.80;;
20896;SDS011;10608;42.600;23.398;2023-07-31T14:20:51;15.23;;;14.43;;